Time;durP1;ratioP1;P1;durP2;ratioP2;P2;SDS_P1;SDS_P2;PMS_P1;PMS_P2;Temp;Humidity;BMP_temperature;BMP_pressure;BME280_temperature;BME280_humidity;BME280_pressure;Samples;Min_cycle;Max_cycle;Signal;HPM_P1;HPM_P2
2023/10/03 00:00:13;;;;;;;56.88;20.95;;;;;;;20.48;100.00;101030.59;5255413;28;20023;-72
2023/10/03 00:02:44;;;;;;;53.08;19.55;;;;;;;20.55;100.00;101019.63;5251742;28;20032;-71
2023/10/03 00:05:18;;;;;;;50.05;19.60;;;;;;;20.54;100.00;101018.81;5252489;28;20027;-72
2023/10/03 00:07:50;;;;;;;54.22;19.83;;;;;;;20.53;100.00;100994.50;5252538;28;20020;-72
2023/10/03 00:10:21;;;;;;;49.47;19.58;;;;;;;20.52;100.00;100998.28;5250811;28;20112;-72
2023/10/03 00:12:52;;;;;;;47.88;18.25;;;;;;;20.50;100.00;100989.50;5253816;28;20034;-71
2023/10/03 00:15:24;;;;;;;51.97;18.48;;;;;;;20.53;100.00;100989.03;5248618;28;20017;-71
2023/10/03 00:17:55;;;;;;;48.80;18.65;;;;;;;20.52;100.00;100982.75;5253511;28;20019;-71
2023/10/03 00:20:26;;;;;;;57.03;19.55;;;;;;;20.55;100.00;100978.75;5248540;28;20023;-72
2023/10/03 00:22:56;;;;;;;50.60;18.65;;;;;;;20.56;100.00;100969.50;5251015;28;20030;-72
2023/10/03 00:25:27;;;;;;;50.53;17.77;;;;;;;20.55;100.00;100968.69;5252174;28;20029;-72
2023/10/03 00:27:59;;;;;;;47.30;17.85;;;;;;;20.56;100.00;100962.16;5250965;28;20013;-72
2023/10/03 00:30:30;;;;;;;44.70;17.17;;;;;;;20.64;100.00;100964.59;5251555;28;20103;-71
2023/10/03 00:33:04;;;;;;;49.55;18.35;;;;;;;20.74;100.00;100957.75;5251460;28;20022;-72
2023/10/03 00:35:35;;;;;;;50.63;17.83;;;;;;;20.78;100.00;100962.50;5255233;28;20029;-73
2023/10/03 00:38:09;;;;;;;46.17;17.27;;;;;;;20.81;100.00;100962.03;5247696;28;20631;-72
2023/10/03 00:40:40;;;;;;;45.97;16.33;;;;;;;20.84;100.00;100958.88;5252395;28;20041;-72
2023/10/03 00:43:12;;;;;;;50.95;17.63;;;;;;;20.83;100.00;100968.09;5250534;28;20488;-71
2023/10/03 00:45:43;;;;;;;43.30;16.50;;;;;;;20.85;100.00;100965.97;5252648;28;20016;-72
2023/10/03 00:48:15;;;;;;;50.67;18.38;;;;;;;20.83;100.00;100957.19;5254164;28;20085;-71
2023/10/03 00:50:46;;;;;;;49.67;16.83;;;;;;;20.82;100.00;100963.69;5249292;28;20111;-71
2023/10/03 00:53:17;;;;;;;46.20;16.35;;;;;;;20.80;100.00;100962.28;5250249;28;20109;-72
2023/10/03 00:55:48;;;;;;;47.70;16.42;;;;;;;20.75;100.00;100946.63;5251889;28;20453;-71
2023/10/03 00:58:27;;;;;;;38.92;15.10;;;;;;;20.79;100.00;100944.25;5248060;28;20023;-71
2023/10/03 01:00:58;;;;;;;45.42;16.30;;;;;;;20.86;100.00;100939.53;5248992;28;20048;-71
2023/10/03 01:03:31;;;;;;;45.90;16.23;;;;;;;20.90;100.00;100936.13;5249279;28;20020;-71
2023/10/03 01:06:04;;;;;;;39.78;15.02;;;;;;;20.91;100.00;100926.03;5251449;28;20027;-71
2023/10/03 01:08:41;;;;;;;37.90;14.63;;;;;;;20.98;100.00;100921.31;5251271;28;20028;-71
2023/10/03 01:11:20;;;;;;;39.88;12.95;;;;;;;21.06;100.00;100920.97;5252804;28;20435;-72
2023/10/03 01:13:57;;;;;;;38.50;13.48;;;;;;;21.11;100.00;100928.47;5249409;28;20114;-71
2023/10/03 01:16:33;;;;;;;38.15;13.27;;;;;;;21.17;100.00;100931.06;5246070;28;20036;-71
2023/10/03 01:21:41;;;;;;;33.78;11.20;;;;;;;21.26;100.00;100931.56;5250611;28;20032;-71
2023/10/03 01:24:24;;;;;;;38.05;12.70;;;;;;;21.34;100.00;100927.72;5249239;28;20069;-71
2023/10/03 01:26:54;;;;;;;34.05;12.50;;;;;;;21.36;100.00;100929.13;5246070;28;20574;-71
2023/10/03 01:29:25;;;;;;;35.65;12.73;;;;;;;21.37;100.00;100922.59;5249129;28;20032;-71
2023/10/03 01:31:55;;;;;;;33.63;11.45;;;;;;;21.35;100.00;100930.19;5245997;28;20028;-71
2023/10/03 01:34:26;;;;;;;29.60;10.95;;;;;;;21.37;100.00;100927.22;5246196;28;20029;-71
2023/10/03 01:36:58;;;;;;;35.22;12.73;;;;;;;21.35;100.00;100918.47;5245664;28;20044;-71
2023/10/03 01:39:30;;;;;;;30.42;11.65;;;;;;;21.34;100.00;100914.91;5250549;28;20019;-71
2023/10/03 01:42:00;;;;;;;31.42;11.77;;;;;;;21.29;100.00;100912.03;5247309;28;20082;-71
2023/10/03 01:44:31;;;;;;;34.03;11.75;;;;;;;21.24;100.00;100921.97;5246671;28;20021;-71
2023/10/03 01:47:01;;;;;;;32.38;11.70;;;;;;;21.20;100.00;100927.06;5251515;28;20024;-70
2023/10/03 01:49:33;;;;;;;34.10;11.52;;;;;;;21.19;100.00;100917.22;5244244;28;20508;-71
2023/10/03 01:52:04;;;;;;;38.72;12.02;;;;;;;21.17;100.00;100913.88;5249005;28;20021;-71
2023/10/03 01:54:36;;;;;;;34.60;11.70;;;;;;;21.11;100.00;100912.09;5244101;28;20424;-71
2023/10/03 01:57:09;;;;;;;30.23;11.52;;;;;;;21.08;100.00;100920.72;5247222;28;20039;-70
2023/10/03 01:59:41;;;;;;;34.97;12.18;;;;;;;21.07;100.00;100925.38;5246312;28;20071;-71
2023/10/03 02:02:12;;;;;;;32.70;10.07;;;;;;;21.11;100.00;100929.28;5249566;28;20020;-71
2023/10/03 02:04:42;;;;;;;35.78;11.68;;;;;;;21.13;100.00;100913.50;5250666;28;20023;-71
2023/10/03 02:07:13;;;;;;;34.95;11.27;;;;;;;21.12;100.00;100927.41;5248069;28;20374;-71
2023/10/03 02:09:46;;;;;;;29.63;11.15;;;;;;;21.11;100.00;100915.66;5246931;28;20020;-71
2023/10/03 02:12:17;;;;;;;27.58;10.25;;;;;;;21.19;100.00;100915.31;5246326;28;20479;-71
2023/10/03 02:14:49;;;;;;;29.13;10.63;;;;;;;21.36;100.00;100928.31;5252765;28;20034;-71
2023/10/03 02:17:20;;;;;;;27.20;10.30;;;;;;;21.50;100.00;100931.66;5246305;28;20482;-71
2023/10/03 02:19:52;;;;;;;27.40;10.10;;;;;;;21.75;100.00;100917.75;5247448;28;20040;-71
2023/10/03 02:22:27;;;;;;;26.70;9.90;;;;;;;21.95;100.00;100921.78;5251363;28;20101;-71
2023/10/03 02:25:00;;;;;;;24.08;9.20;;;;;;;22.16;100.00;100931.25;5247197;28;20466;-71
2023/10/03 02:27:32;;;;;;;31.77;9.65;;;;;;;22.25;100.00;100930.91;5259510;28;20377;-71
2023/10/03 02:30:11;;;;;;;29.15;10.35;;;;;;;22.27;100.00;100942.41;5246791;28;20046;-70
2023/10/03 02:32:42;;;;;;;28.38;10.50;;;;;;;22.21;100.00;100949.66;5257893;28;20413;-70
2023/10/03 02:35:14;;;;;;;25.52;9.32;;;;;;;22.19;100.00;100957.28;5250078;28;20024;-71
2023/10/03 02:37:45;;;;;;;32.92;10.52;;;;;;;22.12;100.00;100953.84;5247541;28;20111;-72
2023/10/03 02:40:21;;;;;;;30.33;10.32;;;;;;;22.01;100.00;100932.81;5249936;28;20127;-72
2023/10/03 02:42:53;;;;;;;26.52;9.95;;;;;;;22.01;100.00;100932.81;5250712;28;20024;-72
2023/10/03 02:45:25;;;;;;;24.45;9.77;;;;;;;21.93;100.00;100934.00;5251853;28;20025;-71
2023/10/03 02:47:56;;;;;;;28.30;9.73;;;;;;;21.85;100.00;100942.56;5254941;28;20062;-72
2023/10/03 02:50:27;;;;;;;27.00;9.90;;;;;;;21.77;100.00;100946.47;5255518;28;20020;-72
2023/10/03 02:52:59;;;;;;;26.08;9.25;;;;;;;21.76;100.00;100939.34;5252463;28;20068;-72
2023/10/03 02:55:29;;;;;;;22.13;8.93;;;;;;;21.69;100.00;100942.22;5251448;28;20030;-72
2023/10/03 02:58:00;;;;;;;27.55;9.27;;;;;;;21.67;100.00;100941.59;5252984;28;20689;-72
2023/10/03 03:00:31;;;;;;;25.25;8.52;;;;;;;21.61;100.00;100942.56;5253541;28;20073;-71
2023/10/03 03:03:06;;;;;;;27.73;9.20;;;;;;;21.49;100.00;100938.16;5253584;28;20008;-71
2023/10/03 03:05:37;;;;;;;24.17;9.38;;;;;;;21.42;100.00;100938.25;5252978;28;20024;-71
2023/10/03 03:10:51;;;;;;;24.67;8.75;;;;;;;21.43;100.00;100948.94;5256944;28;20034;-72
2023/10/03 03:13:31;;;;;;;23.60;8.77;;;;;;;21.33;100.00;100956.88;5250937;28;20012;-72
2023/10/03 03:16:04;;;;;;;21.23;8.63;;;;;;;21.26;100.00;100944.38;5251530;28;20032;-71
2023/10/03 03:18:43;;;;;;;20.25;8.57;;;;;;;21.22;100.00;100946.75;5253644;28;20021;-72
2023/10/03 03:21:15;;;;;;;19.10;7.93;;;;;;;21.17;100.00;100949.34;5252367;28;20066;-72
2023/10/03 03:23:56;;;;;;;16.40;7.00;;;;;;;21.17;100.00;100950.16;5256733;28;20020;-72
2023/10/03 03:26:36;;;;;;;18.45;7.30;;;;;;;21.10;100.00;100948.63;5251231;28;20012;-72
2023/10/03 03:29:31;;;;;;;18.05;6.93;;;;;;;21.04;100.00;100947.66;5252535;28;20028;-72
2023/10/03 03:32:04;;;;;;;17.15;6.60;;;;;;;21.06;100.00;100963.78;5250607;28;20553;-73
2023/10/03 03:34:35;;;;;;;12.63;6.53;;;;;;;20.99;100.00;100960.34;5252566;28;20108;-71
2023/10/03 03:37:21;;;;;;;16.60;6.13;;;;;;;21.01;100.00;100969.13;5255094;28;20072;-72
2023/10/03 03:39:53;;;;;;;17.73;6.45;;;;;;;20.92;100.00;100972.16;5250771;28;20507;-72
2023/10/03 03:42:25;;;;;;;15.65;6.22;;;;;;;20.91;100.00;100977.84;5248672;28;20435;-72
2023/10/03 03:44:55;;;;;;;13.30;5.90;;;;;;;20.82;100.00;100971.88;5242997;28;20582;-71
2023/10/03 03:47:26;;;;;;;15.60;5.72;;;;;;;20.81;100.00;100978.41;5249883;28;20024;-72
2023/10/03 03:49:56;;;;;;;14.55;6.03;;;;;;;20.82;100.00;100981.97;5256039;28;20020;-72
2023/10/03 03:52:27;;;;;;;13.85;5.85;;;;;;;20.79;100.00;100999.63;5254452;28;20016;-72
2023/10/03 03:55:03;;;;;;;16.95;7.03;;;;;;;20.68;100.00;100987.59;5255153;28;20024;-72
2023/10/03 03:57:34;;;;;;;13.15;5.30;;;;;;;20.69;100.00;100994.72;5255054;28;20028;-72
2023/10/03 04:00:12;;;;;;;23.65;6.13;;;;;;;20.69;100.00;101011.06;5253482;28;20111;-71
2023/10/03 04:02:42;;;;;;;15.25;6.10;;;;;;;20.64;100.00;101008.19;5254256;28;20020;-72
2023/10/03 04:05:13;;;;;;;13.70;6.20;;;;;;;20.58;100.00;101022.75;5253665;28;20505;-72
2023/10/03 04:07:43;;;;;;;13.90;5.80;;;;;;;20.57;100.00;101033.84;5253160;28;20028;-71
2023/10/03 04:10:14;;;;;;;12.23;5.30;;;;;;;20.52;100.00;101030.97;5249507;28;20021;-72
2023/10/03 04:12:45;;;;;;;19.33;6.38;;;;;;;20.46;100.00;101038.16;5249920;28;20445;-71
2023/10/03 04:15:18;;;;;;;13.38;5.20;;;;;;;20.36;100.00;101035.13;5247011;28;20378;-72
2023/10/03 04:17:49;;;;;;;17.55;6.18;;;;;;;20.17;100.00;101029.63;5249986;28;20036;-71
2023/10/03 04:20:25;;;;;;;26.25;6.10;;;;;;;20.20;100.00;101011.19;5246808;28;20027;-71
2023/10/03 04:23:05;;;;;;;18.65;6.22;;;;;;;20.15;100.00;101025.50;5250305;28;20028;-71
2023/10/03 04:25:37;;;;;;;14.57;5.78;;;;;;;20.09;100.00;101038.13;5250278;28;20121;-71
2023/10/03 04:28:11;;;;;;;19.77;6.30;;;;;;;19.98;100.00;101029.84;5247988;28;20035;-71
2023/10/03 04:30:42;;;;;;;19.42;5.72;;;;;;;19.94;100.00;101056.69;5250309;28;20035;-71
2023/10/03 04:33:17;;;;;;;11.63;6.10;;;;;;;19.95;100.00;101052.09;5247128;28;20012;-71
2023/10/03 04:35:49;;;;;;;15.55;5.57;;;;;;;19.89;100.00;101045.63;5248713;28;20025;-71
2023/10/03 04:38:20;;;;;;;20.48;5.85;;;;;;;19.84;100.00;101046.31;5249826;28;20032;-71
2023/10/03 04:40:51;;;;;;;17.48;6.75;;;;;;;19.79;100.00;101043.41;5252612;28;20419;-71
2023/10/03 04:43:22;;;;;;;11.73;5.88;;;;;;;19.89;100.00;101053.81;5249508;28;20018;-71
2023/10/03 04:45:52;;;;;;;17.23;5.68;;;;;;;19.79;100.00;101061.66;5249543;28;20095;-71
2023/10/03 04:48:24;;;;;;;15.65;6.13;;;;;;;19.75;100.00;101058.53;5250652;28;20424;-71
2023/10/03 04:50:54;;;;;;;13.63;6.53;;;;;;;19.70;100.00;101061.06;5248419;28;20025;-71
2023/10/03 04:53:25;;;;;;;15.00;5.68;;;;;;;19.72;100.00;101075.28;5250141;28;20020;-71
2023/10/03 04:55:56;;;;;;;12.00;6.10;;;;;;;19.70;100.00;101080.13;5257639;28;20396;-71
2023/10/03 04:58:26;;;;;;;13.23;6.40;;;;;;;19.66;100.00;101068.84;5246721;28;20017;-71
2023/10/03 05:00:57;;;;;;;13.20;5.53;;;;;;;19.66;100.00;101048.97;5254930;28;20439;-71
2023/10/03 05:03:28;;;;;;;16.17;6.15;;;;;;;19.59;100.00;101053.59;5252513;28;20016;-71
2023/10/03 05:06:01;;;;;;;12.57;5.93;;;;;;;19.60;100.00;101049.84;5248468;28;20017;-71
2023/10/03 05:08:31;;;;;;;15.57;6.32;;;;;;;19.53;100.00;101047.16;5244360;28;20107;-71
2023/10/03 05:11:03;;;;;;;16.05;6.28;;;;;;;19.52;100.00;101063.69;5252288;28;20548;-71
2023/10/03 05:13:33;;;;;;;15.55;6.03;;;;;;;19.50;100.00;101058.47;5248442;28;20268;-71
2023/10/03 05:16:06;;;;;;;15.48;6.03;;;;;;;19.44;100.00;101056.63;5242751;28;20547;-71
2023/10/03 05:18:39;;;;;;;15.95;6.10;;;;;;;19.38;100.00;101062.94;5254481;28;20056;-71
2023/10/03 05:21:10;;;;;;;13.68;6.68;;;;;;;19.37;100.00;101075.69;5249906;28;20026;-71
2023/10/03 05:23:41;;;;;;;22.83;6.72;;;;;;;19.36;100.00;101065.03;5251252;28;20027;-71
2023/10/03 05:26:18;;;;;;;19.17;6.75;;;;;;;19.31;100.00;101060.25;5253487;28;20479;-71
2023/10/03 05:28:49;;;;;;;15.55;6.28;;;;;;;19.34;100.00;101059.81;5249830;28;20392;-71
2023/10/03 05:31:19;;;;;;;20.65;6.50;;;;;;;19.34;100.00;101051.66;5244262;28;20016;-71
2023/10/03 05:33:50;;;;;;;17.83;6.32;;;;;;;19.34;100.00;101038.06;5249235;28;20477;-71
2023/10/03 05:36:22;;;;;;;17.33;6.78;;;;;;;19.29;100.00;101069.69;5244814;28;20474;-71
2023/10/03 05:38:52;;;;;;;17.15;6.43;;;;;;;19.25;100.00;101079.34;5252727;28;20046;-71
2023/10/03 05:41:23;;;;;;;17.98;7.07;;;;;;;19.30;100.00;101055.88;5250417;28;20478;-71
2023/10/03 05:43:53;;;;;;;15.35;6.65;;;;;;;19.27;100.00;101055.47;5253959;28;20398;-71
2023/10/03 05:46:24;;;;;;;17.00;6.57;;;;;;;19.18;100.00;101062.22;5249025;28;20016;-71
2023/10/03 05:48:54;;;;;;;17.75;7.03;;;;;;;19.08;100.00;101052.66;5255432;28;20035;-71
2023/10/03 05:51:25;;;;;;;17.38;7.05;;;;;;;19.08;100.00;101062.72;5248583;28;20432;-71
2023/10/03 05:53:55;;;;;;;17.17;7.07;;;;;;;19.10;100.00;101057.88;5248058;28;20486;-70
2023/10/03 05:56:26;;;;;;;21.55;7.50;;;;;;;19.11;100.00;101070.41;5237743;28;22253;-71
2023/10/03 05:59:00;;;;;;;15.63;6.80;;;;;;;19.03;100.00;101087.00;5245035;28;20025;-71
2023/10/03 06:01:30;;;;;;;19.40;6.80;;;;;;;19.06;100.00;101081.09;5245582;28;20082;-71
2023/10/03 06:04:01;;;;;;;20.75;7.57;;;;;;;19.10;100.00;101071.47;5246960;28;20023;-70
2023/10/03 06:06:31;;;;;;;15.23;7.38;;;;;;;19.05;100.00;101066.69;5243720;28;20030;-70
2023/10/03 06:09:02;;;;;;;21.35;7.18;;;;;;;19.12;100.00;101061.19;5244656;28;20021;-70
2023/10/03 06:11:34;;;;;;;18.50;6.75;;;;;;;19.14;100.00;101072.72;5246689;28;20016;-71
2023/10/03 06:14:05;;;;;;;21.38;7.90;;;;;;;19.14;100.00;101083.59;5247006;28;20029;-70
2023/10/03 06:16:36;;;;;;;13.98;6.72;;;;;;;19.11;100.00;101094.88;5248758;28;20569;-70
2023/10/03 06:19:08;;;;;;;19.35;7.18;;;;;;;19.13;100.00;101107.22;5244304;28;20028;-70
2023/10/03 06:21:39;;;;;;;20.58;7.75;;;;;;;19.10;100.00;101104.94;5248663;28;20016;-71
2023/10/03 06:24:09;;;;;;;25.55;8.23;;;;;;;19.13;100.00;101109.94;5247267;28;20024;-71
2023/10/03 06:26:44;;;;;;;23.27;7.82;;;;;;;19.11;100.00;101113.91;5245210;28;20031;-71
2023/10/03 06:29:15;;;;;;;22.73;7.78;;;;;;;19.20;100.00;101120.78;5245924;28;20020;-71
2023/10/03 06:31:46;;;;;;;21.48;7.53;;;;;;;19.20;100.00;101112.63;5246843;28;20366;-71
2023/10/03 06:34:18;;;;;;;15.82;7.60;;;;;;;19.22;100.00;101128.72;5242571;28;20027;-71
2023/10/03 06:36:48;;;;;;;16.77;7.07;;;;;;;19.18;100.00;101138.34;5248632;28;20028;-71
2023/10/03 06:39:19;;;;;;;16.05;6.75;;;;;;;19.28;100.00;101130.59;5246242;28;20021;-71
2023/10/03 06:41:55;;;;;;;18.38;7.05;;;;;;;19.28;100.00;101112.38;5251883;28;20018;-71
2023/10/03 06:44:25;;;;;;;22.83;7.55;;;;;;;19.29;100.00;101122.22;5243002;28;20060;-71
2023/10/03 06:46:56;;;;;;;19.30;7.75;;;;;;;19.28;100.00;101125.16;5246085;28;20436;-71
2023/10/03 06:49:27;;;;;;;19.33;7.25;;;;;;;19.30;100.00;101121.16;5243527;28;20557;-71
2023/10/03 06:52:00;;;;;;;13.80;6.65;;;;;;;19.39;100.00;101124.47;5250696;28;20346;-71
2023/10/03 06:54:31;;;;;;;15.35;6.72;;;;;;;19.40;100.00;101121.53;5253307;28;20039;-71
2023/10/03 06:57:03;;;;;;;17.05;7.07;;;;;;;19.39;100.00;101117.13;5246085;28;20394;-71
2023/10/03 06:59:34;;;;;;;20.80;6.60;;;;;;;19.46;100.00;101121.69;5255258;28;20382;-71
2023/10/03 07:02:05;;;;;;;16.95;7.57;;;;;;;19.55;100.00;101126.66;5248118;28;20118;-71
2023/10/03 07:04:36;;;;;;;13.27;6.78;;;;;;;19.57;100.00;101131.88;5251076;28;20025;-71
2023/10/03 07:07:07;;;;;;;16.65;6.80;;;;;;;19.59;100.00;101137.97;5245447;28;20046;-70
2023/10/03 07:09:38;;;;;;;21.00;7.13;;;;;;;19.56;100.00;101122.06;5248335;28;20040;-71
2023/10/03 07:12:09;;;;;;;15.48;6.40;;;;;;;19.63;100.00;101136.50;5251835;28;20020;-71
2023/10/03 07:14:39;;;;;;;17.15;6.82;;;;;;;19.65;100.00;101139.81;5251727;28;20031;-70
2023/10/03 07:17:14;;;;;;;14.85;7.18;;;;;;;19.64;100.00;101139.00;5255144;28;20020;-71
2023/10/03 07:19:46;;;;;;;14.60;7.35;;;;;;;19.61;100.00;101155.75;5255858;28;20020;-70
2023/10/03 07:22:18;;;;;;;16.15;7.22;;;;;;;19.64;100.00;101159.94;5255636;28;20073;-70
2023/10/03 07:24:51;;;;;;;12.13;5.82;;;;;;;19.70;100.00;101183.56;5249890;28;20025;-71
2023/10/03 07:27:21;;;;;;;17.35;6.18;;;;;;;19.66;100.00;101180.44;5249364;28;20108;-70
2023/10/03 07:29:52;;;;;;;11.20;6.70;;;;;;;19.62;100.00;101172.91;5251797;28;20553;-70
2023/10/03 07:32:23;;;;;;;15.20;7.10;;;;;;;19.68;100.00;101161.19;5257445;28;20044;-70
2023/10/03 07:34:53;;;;;;;16.92;6.43;;;;;;;19.76;100.00;101157.34;5255391;28;20032;-70
2023/10/03 07:37:24;;;;;;;15.48;6.47;;;;;;;19.76;100.00;101174.50;5252859;28;20020;-71
2023/10/03 07:39:55;;;;;;;15.02;6.07;;;;;;;19.81;100.00;101187.47;5261232;28;20023;-70
2023/10/03 07:42:25;;;;;;;12.30;6.75;;;;;;;19.82;100.00;101161.91;5245619;28;20028;-71
2023/10/03 07:44:56;;;;;;;14.02;6.63;;;;;;;19.84;100.00;101184.31;5264278;28;20481;-71
2023/10/03 07:47:26;;;;;;;17.02;6.75;;;;;;;19.74;100.00;101192.97;5250864;28;20393;-71
2023/10/03 07:50:00;;;;;;;15.80;7.10;;;;;;;19.82;100.00;101200.03;5257984;28;20020;-71
2023/10/03 07:52:30;;;;;;;15.95;6.95;;;;;;;19.80;100.00;101199.41;5253663;28;20252;-71
2023/10/03 07:55:03;;;;;;;17.98;6.90;;;;;;;19.77;100.00;101208.84;5253892;28;20505;-71
2023/10/03 07:57:34;;;;;;;14.70;6.78;;;;;;;19.67;100.00;101220.19;5251170;28;20404;-71
2023/10/03 08:00:06;;;;;;;18.02;7.50;;;;;;;19.74;100.00;101216.63;5256756;28;20065;-70
2023/10/03 08:02:38;;;;;;;12.80;7.57;;;;;;;19.70;100.00;101232.53;5246321;28;20455;-71
2023/10/03 08:05:11;;;;;;;14.30;6.60;;;;;;;19.73;100.00;101242.16;5260724;28;20024;-71
2023/10/03 08:07:47;;;;;;;19.00;8.00;;;;;;;19.69;100.00;101241.78;5253998;28;20037;-71
2023/10/03 08:10:19;;;;;;;18.38;8.15;;;;;;;19.53;100.00;101258.53;5255459;28;20396;-71
2023/10/03 08:12:52;;;;;;;15.32;5.95;;;;;;;19.05;100.00;101261.63;5252293;28;20030;-72
2023/10/03 08:15:31;;;;;;;14.05;6.60;;;;;;;18.65;100.00;101267.06;5254002;28;20092;-71
2023/10/03 08:18:03;;;;;;;15.98;7.63;;;;;;;18.42;100.00;101280.19;5247151;28;20027;-71
2023/10/03 08:20:36;;;;;;;18.00;6.97;;;;;;;18.28;100.00;101280.22;5246943;28;20228;-71
2023/10/03 08:23:06;;;;;;;16.42;7.22;;;;;;;18.19;100.00;101297.72;5249905;28;20058;-71
2023/10/03 08:25:41;;;;;;;13.95;6.47;;;;;;;18.14;100.00;101292.09;5254378;28;20212;-71
2023/10/03 08:28:12;;;;;;;17.33;6.95;;;;;;;18.17;100.00;101321.53;5252220;28;20028;-71
2023/10/03 08:30:43;;;;;;;18.10;6.93;;;;;;;18.03;100.00;101328.81;5258065;28;20029;-71
2023/10/03 08:33:16;;;;;;;11.05;5.20;;;;;;;17.96;100.00;101329.81;5254791;28;20029;-71
2023/10/03 08:35:48;;;;;;;11.52;5.15;;;;;;;17.88;100.00;101341.69;5251591;28;20385;-71
2023/10/03 08:38:19;;;;;;;12.43;4.93;;;;;;;17.88;100.00;101338.97;5254874;28;20031;-71
2023/10/03 08:40:51;;;;;;;18.23;4.70;;;;;;;17.94;100.00;101346.31;5244364;28;20335;-71
2023/10/03 08:43:25;;;;;;;12.00;4.10;;;;;;;17.85;100.00;101350.22;5252546;28;20020;-71
2023/10/03 08:45:56;;;;;;;12.73;3.50;;;;;;;17.88;100.00;101365.28;5254664;28;20027;-71
2023/10/03 08:48:30;;;;;;;14.55;4.18;;;;;;;17.94;100.00;101375.34;5249655;28;20028;-71
2023/10/03 08:51:01;;;;;;;16.58;4.05;;;;;;;18.02;100.00;101388.72;5255038;28;20485;-71
2023/10/03 08:53:33;;;;;;;16.08;3.78;;;;;;;18.09;100.00;101386.88;5253868;28;20016;-72
2023/10/03 08:56:03;;;;;;;9.02;3.67;;;;;;;18.14;100.00;101386.28;5252829;28;20477;-72
2023/10/03 08:58:34;;;;;;;8.00;3.50;;;;;;;18.25;100.00;101396.56;5248505;28;20019;-72
2023/10/03 09:01:07;;;;;;;10.52;2.58;;;;;;;18.30;100.00;101397.59;5251794;28;20028;-72
2023/10/03 09:03:48;;;;;;;7.93;2.38;;;;;;;18.20;100.00;101385.47;5251322;28;20111;-71
2023/10/03 09:06:20;;;;;;;14.27;2.72;;;;;;;18.17;100.00;101397.56;5252140;28;20437;-72
2023/10/03 09:09:13;;;;;;;19.25;3.05;;;;;;;18.17;100.00;101399.44;5252389;28;20177;-72
2023/10/03 09:11:45;;;;;;;8.43;1.80;;;;;;;18.21;100.00;101415.13;5251631;28;20429;-72
2023/10/03 09:14:21;;;;;;;8.00;1.90;;;;;;;18.32;100.00;101435.41;5250956;28;20022;-71
2023/10/03 09:16:54;;;;;;;7.82;1.75;;;;;;;18.35;100.00;101438.56;5249391;28;20047;-72
2023/10/03 09:19:42;;;;;;;7.00;1.80;;;;;;;18.38;100.00;101440.06;5247718;28;20037;-72
2023/10/03 09:22:26;;;;;;;17.85;2.35;;;;;;;18.35;100.00;101444.00;5256668;28;20505;-72
2023/10/03 09:24:57;;;;;;;7.90;1.83;;;;;;;18.44;100.00;101446.56;5255196;28;20024;-72
2023/10/03 09:27:30;;;;;;;9.73;2.55;;;;;;;18.46;100.00;101448.00;5249583;28;20073;-71
2023/10/03 09:30:08;;;;;;;6.72;1.75;;;;;;;18.62;100.00;101449.53;5243815;28;20028;-72
2023/10/03 09:32:39;;;;;;;12.98;1.92;;;;;;;18.70;100.00;101446.66;5253911;28;20100;-72
2023/10/03 09:35:10;;;;;;;8.13;1.90;;;;;;;18.70;100.00;101441.22;5253872;28;20020;-72
2023/10/03 09:37:48;;;;;;;3.47;1.23;;;;;;;18.81;100.00;101446.06;5254165;28;20046;-72
2023/10/03 09:40:23;;;;;;;5.63;1.35;;;;;;;18.88;100.00;101452.38;5241229;28;20052;-72
2023/10/03 09:42:56;;;;;;;10.93;1.67;;;;;;;18.98;100.00;101451.97;5254721;28;20061;-72
2023/10/03 09:45:27;;;;;;;8.07;0.90;;;;;;;18.80;100.00;101457.16;5250649;28;20078;-72
2023/10/03 09:47:58;;;;;;;2.95;0.98;;;;;;;18.78;100.00;101473.66;5259792;28;20054;-72
2023/10/03 09:50:30;;;;;;;3.75;0.70;;;;;;;18.67;100.00;101476.09;5251490;28;20020;-71
2023/10/03 09:53:02;;;;;;;3.92;1.10;;;;;;;18.58;100.00;101497.19;5246260;28;20040;-71
2023/10/03 09:55:41;;;;;;;2.38;0.40;;;;;;;18.19;100.00;101509.53;5255425;28;20020;-71
2023/10/03 09:58:11;;;;;;;10.63;1.20;;;;;;;17.81;100.00;101530.78;5251651;28;20048;-71
2023/10/03 10:00:51;;;;;;;6.82;0.82;;;;;;;17.51;100.00;101538.22;5253808;28;20094;-71
2023/10/03 10:03:30;;;;;;;4.38;0.90;;;;;;;17.24;100.00;101546.13;5247402;28;20025;-71
2023/10/03 10:06:19;;;;;;;3.10;0.63;;;;;;;17.16;100.00;101553.53;5253692;28;20016;-71
2023/10/03 10:09:00;;;;;;;2.67;0.50;;;;;;;17.09;100.00;101556.19;5248995;28;20020;-71
2023/10/03 10:11:31;;;;;;;5.88;0.70;;;;;;;17.05;100.00;101553.00;5253606;28;20103;-71
2023/10/03 10:14:09;;;;;;;7.75;1.17;;;;;;;17.13;100.00;101562.06;5256849;28;20069;-71
2023/10/03 10:17:14;;;;;;;2.45;0.75;;;;;;;17.23;100.00;101555.28;5242040;28;20505;-71
2023/10/03 10:20:17;;;;;;;5.57;1.08;;;;;;;17.35;100.00;101569.16;5255001;28;20098;-71
2023/10/03 10:22:56;;;;;;;3.58;0.90;;;;;;;17.33;100.00;101569.38;5242963;28;20031;-71
2023/10/03 10:25:28;;;;;;;4.50;1.10;;;;;;;17.39;100.00;101575.06;5245121;28;20028;-71
2023/10/03 10:28:10;;;;;;;4.57;0.82;;;;;;;17.58;100.00;101574.41;5247050;28;20416;-72
2023/10/03 10:31:16;;;;;;;4.28;1.00;;;;;;;17.83;100.00;101575.72;5252451;28;21726;-71
2023/10/03 10:33:47;;;;;;;3.58;1.02;;;;;;;18.21;100.00;101566.34;5248342;28;20039;-72
2023/10/03 10:36:18;;;;;;;4.70;0.90;;;;;;;18.45;100.00;101557.72;5244149;28;20112;-72
2023/10/03 10:38:52;;;;;;;6.55;0.95;;;;;;;18.48;100.00;101567.38;5248400;28;20012;-72
2023/10/03 10:41:27;;;;;;;9.63;1.10;;;;;;;18.64;100.00;101581.44;5242723;28;20112;-72
2023/10/03 10:44:08;;;;;;;;;;;;;;;18.86;100.00;101592.25;5247325;28;20490;-72
2023/10/03 10:46:44;;;;;;;3.63;0.95;;;;;;;19.09;100.00;101603.63;5244899;28;20375;-71
2023/10/03 10:49:31;;;;;;;5.05;1.13;;;;;;;19.22;100.00;101602.81;5248790;28;20043;-72
2023/10/03 10:52:06;;;;;;;9.90;1.65;;;;;;;19.10;100.00;101604.47;5247137;28;20024;-71
2023/10/03 10:54:39;;;;;;;3.95;0.73;;;;;;;19.07;100.00;101597.53;5246075;28;20512;-71
2023/10/03 10:57:11;;;;;;;4.82;1.25;;;;;;;19.02;100.00;101591.03;5246018;28;20492;-71
2023/10/03 10:59:43;;;;;;;6.63;1.25;;;;;;;19.18;100.00;101600.72;5252218;28;20032;-71
2023/10/03 11:02:17;;;;;;;2.97;0.88;;;;;;;19.46;100.00;101593.25;5252663;28;20447;-71
2023/10/03 11:04:59;;;;;;;2.92;0.88;;;;;;;19.66;100.00;101596.88;5255341;28;20020;-72
2023/10/03 11:07:31;;;;;;;4.30;1.40;;;;;;;19.85;100.00;101583.47;5252094;28;20016;-72
2023/10/03 11:10:06;;;;;;;4.22;1.27;;;;;;;20.09;100.00;101592.91;5250316;28;20081;-72
2023/10/03 11:12:36;;;;;;;6.68;1.23;;;;;;;20.26;100.00;101605.03;5252157;28;20081;-72
2023/10/03 11:15:12;;;;;;;6.07;1.38;;;;;;;20.18;100.00;101618.84;5248961;28;20020;-72
2023/10/03 11:17:48;;;;;;;4.75;1.00;;;;;;;20.03;100.00;101626.41;5247869;28;20497;-72
2023/10/03 11:20:19;;;;;;;3.03;1.27;;;;;;;19.77;100.00;101629.97;5248905;28;20031;-71
2023/10/03 11:22:50;;;;;;;3.78;0.80;;;;;;;19.45;100.00;101632.41;5256969;28;20115;-72
2023/10/03 11:25:21;;;;;;;3.63;0.90;;;;;;;19.29;100.00;101620.00;5253012;28;20021;-72
2023/10/03 11:27:52;;;;;;;2.50;1.00;;;;;;;19.20;100.00;101637.56;5246535;28;20402;-72
2023/10/03 11:30:23;;;;;;;4.05;0.80;;;;;;;19.14;100.00;101644.66;5252595;28;20032;-71
2023/10/03 11:33:01;;;;;;;2.60;0.90;;;;;;;19.35;100.00;101646.38;5252750;28;20024;-71
2023/10/03 11:35:31;;;;;;;3.15;0.73;;;;;;;19.86;100.00;101651.34;5250444;28;20426;-71
2023/10/03 11:38:08;;;;;;;3.60;0.80;;;;;;;20.26;100.00;101653.22;5249263;28;20051;-71
2023/10/03 11:40:40;;;;;;;3.65;1.20;;;;;;;20.04;100.00;101669.78;5252769;28;20032;-72